createdAt,value
2022-12-01T00:00:45.330Z,101348.22265625
2022-12-01T00:01:45.753Z,101344.296875
2022-12-01T00:02:45.557Z,101346.5859375
2022-12-01T00:03:45.339Z,101345.78125
2022-12-01T00:04:45.376Z,101340.21484375
2022-12-01T00:05:45.284Z,101342.7890625
2022-12-01T00:06:48.655Z,101339.91796875
2022-12-01T00:07:47.532Z,101338.07421875
2022-12-01T00:08:45.456Z,101341.12109375
2022-12-01T00:09:45.446Z,101338.078125
2022-12-01T00:10:45.717Z,101341.4375
2022-12-01T00:11:45.826Z,101339.23828125
2022-12-01T00:12:45.286Z,101339.234375
2022-12-01T00:13:45.277Z,101341.59765625
2022-12-01T00:14:45.402Z,101340.2578125
2022-12-01T00:15:45.344Z,101339.38671875
2022-12-01T00:16:45.805Z,101344.33984375
2022-12-01T00:17:45.284Z,101343.88671875
2022-12-01T00:18:45.261Z,101343.77734375
2022-12-01T00:19:45.652Z,101346.66796875
2022-12-01T00:20:45.367Z,101345.1171875
2022-12-01T00:21:45.709Z,101341.3828125
2022-12-01T00:22:48.300Z,101341.38671875
2022-12-01T00:23:45.422Z,101341.7421875
2022-12-01T00:24:45.392Z,101345.12890625
2022-12-01T00:25:45.718Z,101345.140625
2022-12-01T00:26:45.638Z,101346.83203125
2022-12-01T00:27:45.381Z,101351.625
2022-12-01T00:28:45.291Z,101349.62109375
2022-12-01T00:29:45.502Z,101351.86328125
2022-12-01T00:30:45.365Z,101353.07421875
2022-12-01T00:31:45.826Z,101356.3203125
2022-12-01T00:32:45.456Z,101352.33984375
2022-12-01T00:33:48.412Z,101351.36328125
2022-12-01T00:34:45.370Z,101347.69921875
2022-12-01T00:35:45.282Z,101353.953125
2022-12-01T00:36:45.711Z,101355.47265625
2022-12-01T00:37:45.365Z,101354.73046875
2022-12-01T00:38:45.366Z,101356.10546875
2022-12-01T00:39:45.410Z,101352.20703125
2022-12-01T00:40:45.716Z,101353.8515625
2022-12-01T00:41:45.649Z,101355.953125
2022-12-01T00:42:45.374Z,101351.41796875
2022-12-01T00:43:45.288Z,101352.64453125
2022-12-01T00:44:45.382Z,101352.93359375
2022-12-01T00:45:45.449Z,101353.6015625
2022-12-01T00:46:45.760Z,101352.48046875
2022-12-01T00:47:45.487Z,101353.00390625
2022-12-01T00:48:45.281Z,101356.71484375
2022-12-01T00:49:48.738Z,101357.0390625
2022-12-01T00:50:45.373Z,101355.53125
2022-12-01T00:51:45.764Z,101357.5546875
2022-12-01T00:52:45.436Z,101354.08203125
2022-12-01T00:53:45.444Z,101357.62890625
2022-12-01T00:54:45.282Z,101358.4375
2022-12-01T00:55:45.637Z,101356.43359375
2022-12-01T00:56:45.709Z,101356.56640625
2022-12-01T00:57:45.349Z,101359.10546875
2022-12-01T00:58:45.413Z,101357.6484375
2022-12-01T00:59:45.473Z,101355.8515625
2022-12-01T01:00:48.393Z,101356.40625
2022-12-01T01:01:45.792Z,101357.10546875
2022-12-01T01:02:45.539Z,101359.41015625
2022-12-01T01:03:45.373Z,101355.9296875
2022-12-01T01:04:45.260Z,101355.16015625
2022-12-01T01:05:45.291Z,101358.45703125
2022-12-01T01:06:45.645Z,101355.49609375
2022-12-01T01:07:45.527Z,101358.59375
2022-12-01T01:08:45.394Z,101356.85546875
2022-12-01T01:09:45.462Z,101359.93359375
2022-12-01T01:10:45.711Z,101362.6015625
2022-12-01T01:11:45.647Z,101362.140625
2022-12-01T01:12:45.336Z,101364.296875
2022-12-01T01:13:45.377Z,101366.0390625
2022-12-01T01:14:45.258Z,101364.3671875
2022-12-01T01:15:45.291Z,101362.3515625
2022-12-01T01:16:51.391Z,101366.45703125
2022-12-01T01:17:45.383Z,101365.19921875
2022-12-01T01:18:45.344Z,101365.48046875
2022-12-01T01:19:45.287Z,101366.33984375
2022-12-01T01:20:45.357Z,101366.23828125
2022-12-01T01:21:45.701Z,101370.7265625
2022-12-01T01:22:45.378Z,101369.234375
2022-12-01T01:23:45.408Z,101369.3828125
2022-12-01T01:24:45.487Z,101370.546875
2022-12-01T01:25:45.701Z,101369.86328125
2022-12-01T01:26:45.635Z,101374.07421875
2022-12-01T01:27:45.297Z,101374.66015625
2022-12-01T01:28:45.352Z,101372.515625
2022-12-01T01:29:45.503Z,101378.50390625
2022-12-01T01:30:45.329Z,101377.484375
2022-12-01T01:31:45.839Z,101374.55859375
2022-12-01T01:32:48.343Z,101376.60546875
2022-12-01T01:33:45.466Z,101375.39453125
2022-12-01T01:34:45.269Z,101376.6796875
2022-12-01T01:35:45.375Z,101377.7890625
2022-12-01T01:36:45.760Z,101375.46484375
2022-12-01T01:37:45.385Z,101376.765625
2022-12-01T01:38:45.297Z,101375.2109375
2022-12-01T01:39:45.296Z,101375.37890625
2022-12-01T01:40:45.641Z,101377.12109375
2022-12-01T01:41:45.681Z,101378.98828125
2022-12-01T01:42:45.370Z,101376.62109375
2022-12-01T01:43:48.325Z,101383.19140625
2022-12-01T01:44:45.330Z,101386.65234375
2022-12-01T01:45:45.341Z,101383.203125
2022-12-01T01:46:45.703Z,101379.60546875
2022-12-01T01:47:45.455Z,101382.2109375
2022-12-01T01:48:45.268Z,101381.22265625
2022-12-01T01:49:45.533Z,101379.0859375
2022-12-01T01:50:45.277Z,101382.38671875
2022-12-01T01:51:45.638Z,101381.7109375
2022-12-01T01:52:45.503Z,101384.8515625
2022-12-01T01:53:45.452Z,101383.4921875
2022-12-01T01:54:48.297Z,101383.36328125
2022-12-01T01:55:45.642Z,101387.61328125
2022-12-01T01:56:45.646Z,101385.59375
2022-12-01T01:57:45.439Z,101382.5078125
2022-12-01T01:58:45.370Z,101384.5
2022-12-01T01:59:45.487Z,101382.45703125
2022-12-01T02:00:45.284Z,101388.1015625
2022-12-01T02:01:45.787Z,101389.21484375
2022-12-01T02:02:45.490Z,101382.29296875
2022-12-01T02:03:45.450Z,101389.5078125
2022-12-01T02:04:45.396Z,101387.01171875
2022-12-01T02:05:48.347Z,101385.80078125
2022-12-01T02:06:45.749Z,101384.8515625
2022-12-01T02:07:45.650Z,101382.9765625
2022-12-01T02:08:45.483Z,101383.8828125
2022-12-01T02:09:45.746Z,101384.48046875
2022-12-01T02:10:45.646Z,101385.015625
2022-12-01T02:11:45.699Z,101382.37109375
2022-12-01T02:12:45.275Z,101381.17578125
2022-12-01T02:13:45.269Z,101381.3828125
2022-12-01T02:14:45.361Z,101384.03125
2022-12-01T02:15:45.328Z,101379.453125
2022-12-01T02:16:48.765Z,101382.39453125
2022-12-01T02:17:45.363Z,101381.7265625
2022-12-01T02:18:45.382Z,101379.3046875
2022-12-01T02:19:45.274Z,101381.55859375
2022-12-01T02:20:45.380Z,101382.734375
2022-12-01T02:21:45.904Z,101380.828125
2022-12-01T02:22:49.382Z,101384.30859375
2022-12-01T02:23:45.394Z,101383.0703125
2022-12-01T02:24:45.482Z,101385.53515625
2022-12-01T02:25:45.711Z,101383.04296875
2022-12-01T02:26:45.632Z,101382.15234375
2022-12-01T02:27:48.409Z,101379.94140625
2022-12-01T02:28:45.356Z,101382.0390625
2022-12-01T02:29:45.361Z,101382.62109375
2022-12-01T02:30:45.340Z,101381.828125
2022-12-01T02:31:45.630Z,101381.71484375
2022-12-01T02:32:45.338Z,101384.8671875
2022-12-01T02:33:45.280Z,101382.98046875
2022-12-01T02:34:45.276Z,101376.1015625
2022-12-01T02:35:45.281Z,101378.19921875
2022-12-01T02:36:45.701Z,101375.7265625
2022-12-01T02:37:45.356Z,101376.48046875
2022-12-01T02:38:45.379Z,101374.51171875
2022-12-01T02:39:45.279Z,101373.8203125
2022-12-01T02:40:45.712Z,101370.3359375
2022-12-01T02:41:45.650Z,101379.453125
2022-12-01T02:42:45.477Z,101378.1015625
2022-12-01T02:43:48.264Z,101378.828125
2022-12-01T02:44:45.258Z,101378.97265625
2022-12-01T02:45:45.493Z,101378.96875
2022-12-01T02:46:45.768Z,101379.16015625
2022-12-01T02:47:45.381Z,101379.046875
2022-12-01T02:48:45.315Z,101377.390625
2022-12-01T02:49:45.414Z,101375.703125
2022-12-01T02:50:45.401Z,101376.3984375
2022-12-01T02:51:45.706Z,101376.44140625
2022-12-01T02:52:45.343Z,101382.76171875
2022-12-01T02:53:45.390Z,101385.66796875
2022-12-01T02:54:45.370Z,101384.15234375
2022-12-01T02:55:45.704Z,101385.36328125
2022-12-01T02:56:45.686Z,101380.4140625
2022-12-01T02:57:45.449Z,101382.94140625
2022-12-01T02:58:45.276Z,101381.2734375
2022-12-01T02:59:45.379Z,101384.1484375
2022-12-01T03:00:45.385Z,101383.640625
2022-12-01T03:01:45.502Z,101385.9375
2022-12-01T03:02:45.332Z,101380.94140625
2022-12-01T03:03:45.370Z,101380.1015625
2022-12-01T03:04:48.412Z,101380.3046875
2022-12-01T03:05:45.453Z,101381.9140625
2022-12-01T03:06:45.792Z,101383.19140625
2022-12-01T03:07:45.427Z,101381.59375
2022-12-01T03:08:45.374Z,101379.52734375
2022-12-01T03:09:45.419Z,101382.875
2022-12-01T03:10:45.650Z,101382.96484375
2022-12-01T03:11:45.741Z,101380.51171875
2022-12-01T03:12:45.384Z,101382.11328125
2022-12-01T03:13:45.318Z,101383.8515625
2022-12-01T03:14:45.335Z,101379.9765625
2022-12-01T03:15:48.474Z,101380.71875
2022-12-01T03:16:45.714Z,101381.0390625
2022-12-01T03:17:45.396Z,101379.45703125
2022-12-01T03:18:45.444Z,101378.8515625
2022-12-01T03:19:45.509Z,101373.25
2022-12-01T03:20:45.259Z,101376.64453125
2022-12-01T03:21:45.638Z,101372.2578125
2022-12-01T03:22:45.263Z,101371.28125
2022-12-01T03:23:45.281Z,101371.5859375
2022-12-01T03:24:45.406Z,101372.4296875
2022-12-01T03:25:45.778Z,101370.546875
2022-12-01T03:26:51.333Z,101369.6875
2022-12-01T03:28:13.579Z,101370.42578125
2022-12-01T03:28:45.400Z,101373.33203125
2022-12-01T03:29:45.520Z,101372.60546875
2022-12-01T03:30:45.406Z,101370.9375
2022-12-01T03:31:45.808Z,101368.2890625
2022-12-01T03:32:45.389Z,101371.73046875
2022-12-01T03:33:45.392Z,101370.5859375
2022-12-01T03:34:45.358Z,101369.4921875
2022-12-01T03:35:45.264Z,101373.67578125
2022-12-01T03:36:45.711Z,101372.2578125
2022-12-01T03:37:48.443Z,101371.171875
2022-12-01T03:38:45.368Z,101371.29296875
2022-12-01T03:39:45.478Z,101371.3359375
2022-12-01T03:40:45.444Z,101372.05078125
2022-12-01T03:41:45.641Z,101372.1953125
2022-12-01T03:42:45.277Z,101370.49609375
2022-12-01T03:43:45.378Z,101372.09375
2022-12-01T03:44:45.282Z,101373.67578125
2022-12-01T03:45:45.400Z,101371.5234375
2022-12-01T03:46:45.671Z,101375.9296875
2022-12-01T03:47:45.275Z,101377.3984375
2022-12-01T03:48:48.397Z,101374.34765625
2022-12-01T03:49:45.412Z,101375.53125
2022-12-01T03:50:45.275Z,101375.0625
2022-12-01T03:51:45.814Z,101379.31640625
2022-12-01T03:52:45.362Z,101380.359375
2022-12-01T03:53:45.360Z,101380.4765625
2022-12-01T03:54:45.401Z,101380.64453125
2022-12-01T03:55:45.634Z,101383.12890625
2022-12-01T03:56:45.639Z,101383.49609375
2022-12-01T03:57:45.415Z,101383.125
2022-12-01T03:58:45.411Z,101382.01171875
2022-12-01T03:59:45.325Z,101390.671875
2022-12-01T04:00:45.441Z,101390.34765625
2022-12-01T04:01:45.735Z,101390.2578125
2022-12-01T04:02:45.537Z,101387.1875
2022-12-01T04:03:45.306Z,101384.93359375
2022-12-01T04:04:48.289Z,101384.4296875
2022-12-01T04:05:45.383Z,101388.9140625
2022-12-01T04:06:45.735Z,101386.2421875
2022-12-01T04:07:45.447Z,101387.10546875
2022-12-01T04:08:45.361Z,101389.55859375
2022-12-01T04:09:45.267Z,101389.35546875
2022-12-01T04:10:45.685Z,101385.87109375
2022-12-01T04:11:45.766Z,101389.1953125
2022-12-01T04:12:45.276Z,101388.6640625
2022-12-01T04:13:45.498Z,101387.54296875
2022-12-01T04:14:45.351Z,101388.65625
2022-12-01T04:15:48.457Z,101391.60546875
2022-12-01T04:16:45.632Z,101394.2578125
2022-12-01T04:17:45.489Z,101395.53515625
2022-12-01T04:18:45.277Z,101391.49609375
2022-12-01T04:19:45.411Z,101396.01953125
2022-12-01T04:20:45.397Z,101394.44140625
2022-12-01T04:21:45.635Z,101391.79296875
2022-12-01T04:22:45.379Z,101392.234375
2022-12-01T04:23:45.412Z,101392.81640625
2022-12-01T04:24:45.258Z,101393.234375
2022-12-01T04:25:45.641Z,101392.16796875
2022-12-01T04:26:51.305Z,101392.2109375
2022-12-01T04:27:45.422Z,101391.30859375
2022-12-01T04:28:45.305Z,101394.3515625
2022-12-01T04:29:45.260Z,101395.1171875
2022-12-01T04:30:45.273Z,101391.93359375
2022-12-01T04:31:45.687Z,101390.49609375
2022-12-01T04:32:45.366Z,101391.125
2022-12-01T04:33:45.479Z,101391.15234375
2022-12-01T04:34:45.361Z,101388.03515625
2022-12-01T04:35:45.265Z,101391.6640625
2022-12-01T04:36:45.706Z,101391.890625
2022-12-01T04:37:48.294Z,101394.6796875
2022-12-01T04:38:45.438Z,101394.00390625
2022-12-01T04:39:45.263Z,101396.484375
2022-12-01T04:40:45.714Z,101394.796875
2022-12-01T04:41:45.639Z,101394.02734375
2022-12-01T04:42:45.354Z,101397.33203125
2022-12-01T04:43:45.368Z,101394.9765625
2022-12-01T04:44:45.416Z,101392.31640625
2022-12-01T04:45:45.483Z,101392.79296875
2022-12-01T04:46:45.747Z,101390.359375
2022-12-01T04:47:45.417Z,101389.35546875
2022-12-01T04:48:45.432Z,101388.51953125
2022-12-01T04:49:45.348Z,101392.8203125
2022-12-01T04:50:45.391Z,101390.12890625
2022-12-01T04:51:45.641Z,101391.58984375
2022-12-01T04:52:45.350Z,101390.47265625
2022-12-01T04:53:48.397Z,101385.40234375
2022-12-01T04:54:45.463Z,101382.6171875
2022-12-01T04:55:45.718Z,101389.8046875
2022-12-01T04:56:45.643Z,101387.22265625
2022-12-01T04:57:45.312Z,101389.546875
2022-12-01T04:58:45.474Z,101388.51953125
2022-12-01T04:59:45.276Z,101388.37890625
2022-12-01T05:00:45.426Z,101388.80078125
2022-12-01T05:01:45.434Z,101383.8515625
2022-12-01T05:02:45.371Z,101381.59765625
2022-12-01T05:03:45.390Z,101383.015625
2022-12-01T05:04:48.336Z,101383.43359375
2022-12-01T05:05:45.271Z,101383.578125
2022-12-01T05:06:45.711Z,101384.77734375
2022-12-01T05:07:45.390Z,101383.52734375
2022-12-01T05:08:45.266Z,101385.5703125
2022-12-01T05:09:45.279Z,101385.15234375
2022-12-01T05:10:45.643Z,101383.296875
2022-12-01T05:11:45.704Z,101383.921875
2022-12-01T05:12:45.503Z,101386.87109375
2022-12-01T05:13:45.339Z,101389.17578125
2022-12-01T05:14:45.310Z,101391.26171875
2022-12-01T05:15:48.261Z,101390.328125
2022-12-01T05:16:45.714Z,101392.83984375
2022-12-01T05:17:45.274Z,101390.6796875
2022-12-01T05:18:45.395Z,101394.703125
2022-12-01T05:19:45.467Z,101391.69921875
2022-12-01T05:20:45.259Z,101392.93359375
2022-12-01T05:21:45.807Z,101393.4296875
2022-12-01T05:23:04.701Z,101391.75390625
2022-12-01T05:23:45.276Z,101389.703125
2022-12-01T05:24:45.413Z,101391.17578125
2022-12-01T05:25:45.711Z,101390.96484375
2022-12-01T05:26:51.356Z,101391.5625
2022-12-01T05:27:45.385Z,101389.6796875
2022-12-01T05:28:45.467Z,101387.19140625
2022-12-01T05:29:45.348Z,101390.5703125
2022-12-01T05:30:45.277Z,101391.515625
2022-12-01T05:31:45.918Z,101392.38671875
2022-12-01T05:32:45.281Z,101393.51953125
2022-12-01T05:33:45.425Z,101394.89453125
2022-12-01T05:34:45.344Z,101394.12109375
2022-12-01T05:35:45.407Z,101393.4296875
2022-12-01T05:36:45.700Z,101392.69921875
2022-12-01T05:37:48.383Z,101393.65625
2022-12-01T05:38:45.510Z,101394.14453125
2022-12-01T05:39:45.387Z,101397.20703125
2022-12-01T05:40:48.544Z,101400.953125
2022-12-01T05:41:45.631Z,101394.30859375
2022-12-01T05:42:45.361Z,101399.94140625
2022-12-01T05:43:45.300Z,101404.0078125
2022-12-01T05:44:45.281Z,101396.62109375
2022-12-01T05:45:45.347Z,101396.97265625
2022-12-01T05:46:45.638Z,101400.4140625
2022-12-01T05:47:45.363Z,101400.625
2022-12-01T05:48:45.313Z,101402.90625
2022-12-01T05:49:45.355Z,101398.703125
2022-12-01T05:50:45.283Z,101395.7734375
2022-12-01T05:51:45.301Z,101398
2022-12-01T05:52:45.270Z,101397.0234375
2022-12-01T05:53:48.376Z,101403.6484375
2022-12-01T05:54:45.408Z,101401.6953125
2022-12-01T05:55:45.371Z,101404.8984375
2022-12-01T05:56:45.710Z,101409.26953125
2022-12-01T05:57:45.358Z,101408.61328125
2022-12-01T05:58:45.375Z,101409.9921875
2022-12-01T05:59:45.266Z,101410.12890625
2022-12-01T06:00:46.229Z,101409.0859375
2022-12-01T06:01:45.786Z,101409.4765625
2022-12-01T06:02:45.356Z,101411.31640625
2022-12-01T06:03:45.277Z,101411.08203125
2022-12-01T06:04:48.304Z,101415.40234375
2022-12-01T06:05:45.371Z,101413.38671875
2022-12-01T06:06:45.655Z,101414.49609375
2022-12-01T06:07:45.377Z,101411.0078125
2022-12-01T06:08:45.386Z,101407.71875
2022-12-01T06:09:45.417Z,101405.203125
2022-12-01T06:10:45.371Z,101409.73046875
2022-12-01T06:11:52.229Z,101410.8984375
2022-12-01T06:12:45.351Z,101408.78125
2022-12-01T06:13:45.278Z,101407.5
2022-12-01T06:14:45.285Z,101406.87890625
2022-12-01T06:15:48.387Z,101412.1953125
2022-12-01T06:16:45.885Z,101411.2890625
2022-12-01T06:17:45.299Z,101415.3125
2022-12-01T06:18:45.285Z,101416.09765625
2022-12-01T06:19:45.464Z,101416.421875
2022-12-01T06:20:45.491Z,101414.95703125
2022-12-01T06:21:45.481Z,101414.5390625
2022-12-01T06:22:45.280Z,101420.53515625
2022-12-01T06:23:45.402Z,101419.79296875
2022-12-01T06:24:45.473Z,101422.29296875
2022-12-01T06:25:45.460Z,101421.84765625
2022-12-01T06:26:45.641Z,101421.515625
2022-12-01T06:27:45.506Z,101423.74609375
2022-12-01T06:28:45.277Z,101422.11328125
2022-12-01T06:29:45.377Z,101424.67578125
2022-12-01T06:30:45.421Z,101425.71875
2022-12-01T06:31:45.669Z,101424.453125
2022-12-01T06:32:45.279Z,101429.8046875
2022-12-01T06:33:45.385Z,101429.81640625
2022-12-01T06:34:45.455Z,101429.609375
2022-12-01T06:35:45.366Z,101431.83203125
2022-12-01T06:36:48.779Z,101432.39453125
2022-12-01T06:37:45.487Z,101431.62890625
2022-12-01T06:38:45.412Z,101432.7109375
2022-12-01T06:39:45.414Z,101437.7109375
2022-12-01T06:40:45.431Z,101437.2265625
2022-12-01T06:41:45.634Z,101437.5
2022-12-01T06:42:48.289Z,101440.77734375
2022-12-01T06:43:45.468Z,101438.8984375
2022-12-01T06:44:45.399Z,101440.3046875
2022-12-01T06:45:45.561Z,101439.75390625
2022-12-01T06:46:45.633Z,101438.0390625
2022-12-01T06:47:45.300Z,101437.3828125
2022-12-01T06:48:48.282Z,101438.08203125
2022-12-01T06:49:45.436Z,101438.640625
2022-12-01T06:50:45.581Z,101439.24609375
2022-12-01T06:51:45.632Z,101441.921875
2022-12-01T06:52:45.649Z,101444.75390625
2022-12-01T06:53:45.281Z,101447.08984375
2022-12-01T06:54:45.411Z,101447.453125
2022-12-01T06:55:45.415Z,101444.671875
2022-12-01T06:56:45.640Z,101445.1484375
2022-12-01T06:57:45.343Z,101445.73046875
2022-12-01T06:58:45.286Z,101448.734375
2022-12-01T06:59:48.712Z,101449.45703125
2022-12-01T07:00:50.473Z,101447.71484375
2022-12-01T07:01:45.687Z,101448.078125
2022-12-01T07:02:45.480Z,101445.87890625
2022-12-01T07:03:45.263Z,101447.921875
2022-12-01T07:04:45.257Z,101448.15625
2022-12-01T07:05:45.424Z,101452.94921875
2022-12-01T07:06:45.632Z,101453.046875
2022-12-01T07:07:45.433Z,101451.3046875
2022-12-01T07:08:45.270Z,101450.86328125
2022-12-01T07:09:45.331Z,101449.6171875
2022-12-01T07:10:48.297Z,101447.9921875
2022-12-01T07:11:45.693Z,101449.24609375
2022-12-01T07:12:45.381Z,101445.39453125
2022-12-01T07:13:45.271Z,101448.21484375
2022-12-01T07:14:45.449Z,101449.34765625
2022-12-01T07:15:45.359Z,101453.09375
2022-12-01T07:16:45.712Z,101451.42578125
2022-12-01T07:17:45.267Z,101455.8984375
2022-12-01T07:18:45.459Z,101458.32421875
2022-12-01T07:19:45.356Z,101456.28515625
2022-12-01T07:20:45.486Z,101454.04296875
2022-12-01T07:21:45.647Z,101463.7109375
2022-12-01T07:22:45.400Z,101461.234375
2022-12-01T07:23:45.465Z,101465.79296875
2022-12-01T07:24:45.382Z,101469.83203125
2022-12-01T07:25:45.499Z,101466.3203125
2022-12-01T07:26:51.335Z,101464.8125
2022-12-01T07:27:45.373Z,101464.33203125
2022-12-01T07:28:45.285Z,101468.12109375
2022-12-01T07:29:45.384Z,101469.71875
2022-12-01T07:30:45.554Z,101472.6875
2022-12-01T07:31:45.829Z,101471.73046875
2022-12-01T07:32:45.286Z,101475.7421875
2022-12-01T07:33:45.286Z,101472.50390625
2022-12-01T07:34:45.355Z,101477.6015625
2022-12-01T07:35:45.423Z,101477.40625
2022-12-01T07:36:45.643Z,101480.21875
2022-12-01T07:37:48.309Z,101480.5390625
2022-12-01T07:38:45.380Z,101478.1640625
2022-12-01T07:39:45.260Z,101476.4375
2022-12-01T07:40:45.283Z,101483.1015625
2022-12-01T07:41:45.641Z,101480.84375
2022-12-01T07:42:45.439Z,101483.3203125
2022-12-01T07:43:48.250Z,101483.484375
2022-12-01T07:44:45.483Z,101481.765625
2022-12-01T07:45:45.458Z,101480.6328125
2022-12-01T07:46:45.695Z,101485.42578125
2022-12-01T07:47:45.264Z,101485.0703125
2022-12-01T07:48:45.263Z,101483.73046875
2022-12-01T07:49:45.384Z,101480.52734375
2022-12-01T07:50:45.241Z,101483.79296875
2022-12-01T07:51:45.712Z,101488.796875
2022-12-01T07:52:45.281Z,101486.640625
2022-12-01T07:53:45.480Z,101486.5234375
2022-12-01T07:54:48.291Z,101491.7265625
2022-12-01T07:55:45.369Z,101486.23046875
2022-12-01T07:56:45.716Z,101487.23828125
2022-12-01T07:57:45.351Z,101491.08984375
2022-12-01T07:58:45.402Z,101490.58203125
2022-12-01T07:59:45.419Z,101490.53515625
2022-12-01T08:00:45.478Z,101490.7578125
2022-12-01T08:01:45.748Z,101492.265625
2022-12-01T08:02:45.352Z,101495.99609375
2022-12-01T08:03:45.368Z,101493.984375
2022-12-01T08:04:45.265Z,101493.72265625
2022-12-01T08:05:45.290Z,101496.11328125
2022-12-01T08:06:45.922Z,101495.1015625
2022-12-01T08:07:48.131Z,101496.7578125
2022-12-01T08:08:45.442Z,101503.46484375
2022-12-01T08:09:45.357Z,101496.046875
2022-12-01T08:10:48.405Z,101502.49609375
2022-12-01T08:11:45.637Z,101494.65234375
2022-12-01T08:12:45.458Z,101493.87109375
2022-12-01T08:13:45.351Z,101496.1484375
2022-12-01T08:14:45.384Z,101499.33984375
2022-12-01T08:15:45.485Z,101498.734375
2022-12-01T08:16:45.632Z,101499.875
2022-12-01T08:17:45.308Z,101497.12890625
2022-12-01T08:18:45.377Z,101498.06640625
2022-12-01T08:19:45.283Z,101498.08984375
2022-12-01T08:20:45.417Z,101496.5078125
2022-12-01T08:21:51.332Z,101495.91796875
2022-12-01T08:22:45.449Z,101503.26953125
2022-12-01T08:23:45.425Z,101506.06640625
2022-12-01T08:24:45.449Z,101505.9765625
2022-12-01T08:25:45.263Z,101509.64453125
2022-12-01T08:26:45.648Z,101507.984375
2022-12-01T08:27:45.281Z,101504.84375
2022-12-01T08:28:45.360Z,101512.24609375
2022-12-01T08:29:45.399Z,101514.39453125
2022-12-01T08:30:45.437Z,101511.5859375
2022-12-01T08:31:45.632Z,101513.03125
2022-12-01T08:32:48.460Z,101510.32421875
2022-12-01T08:33:45.418Z,101507.7578125
2022-12-01T08:34:49.368Z,101509.8515625
2022-12-01T08:35:45.399Z,101506.16796875
2022-12-01T08:36:45.636Z,101508.625
2022-12-01T08:37:45.375Z,101509.3984375
2022-12-01T08:38:45.404Z,101510.671875
2022-12-01T08:39:45.409Z,101509.83203125
2022-12-01T08:40:45.453Z,101515.1953125
2022-12-01T08:41:45.714Z,101512.04296875
2022-12-01T08:42:45.350Z,101506.75390625
2022-12-01T08:43:59.424Z,101505.59765625
2022-12-01T08:44:45.509Z,101508.35546875
2022-12-01T08:45:45.427Z,101510.87890625
2022-12-01T08:46:45.704Z,101509.51953125
2022-12-01T08:47:45.356Z,101505.11328125
2022-12-01T08:48:45.464Z,101507.703125
2022-12-01T08:49:45.254Z,101510.55078125
2022-12-01T08:50:45.286Z,101516.37890625
2022-12-01T08:51:45.704Z,101510.51953125
2022-12-01T08:52:45.352Z,101508.2578125
2022-12-01T08:53:45.869Z,101506.45703125
2022-12-01T08:54:48.267Z,101511.125
2022-12-01T08:55:45.371Z,101509.421875
2022-12-01T08:56:45.706Z,101508.42578125
2022-12-01T08:57:45.358Z,101513.6953125
2022-12-01T08:58:45.253Z,101512.453125
2022-12-01T08:59:45.283Z,101510.0390625
2022-12-01T09:00:48.343Z,101517.84765625
2022-12-01T09:01:45.693Z,101512.88671875
2022-12-01T09:02:45.327Z,101515.07421875
2022-12-01T09:03:45.471Z,101514.50390625
2022-12-01T09:04:45.278Z,101514.26953125
2022-12-01T09:05:45.279Z,101514.94140625
2022-12-01T09:06:51.323Z,101513.2109375
2022-12-01T09:07:45.434Z,101513.23046875
2022-12-01T09:08:45.264Z,101513.2734375
2022-12-01T09:09:45.280Z,101512.37109375
2022-12-01T09:10:45.396Z,101507.74609375
2022-12-01T09:11:45.700Z,101511.45703125
2022-12-01T09:12:48.364Z,101507.86328125
2022-12-01T09:13:48.735Z,101508.46484375
2022-12-01T09:14:45.278Z,101509.6953125
2022-12-01T09:15:45.529Z,101506.64453125
2022-12-01T09:16:45.686Z,101504.3515625
2022-12-01T09:17:45.381Z,101506.76953125
2022-12-01T09:18:45.259Z,101506.5078125
2022-12-01T09:19:45.358Z,101502.9609375
2022-12-01T09:20:45.399Z,101504.65625
2022-12-01T09:21:45.639Z,101504.29296875
2022-12-01T09:22:45.452Z,101502.3515625
2022-12-01T09:23:48.377Z,101502.66796875
2022-12-01T09:24:45.386Z,101503.7109375
2022-12-01T09:25:45.411Z,101506.328125
2022-12-01T09:26:45.646Z,101503.6171875
2022-12-01T09:27:45.368Z,101501.3671875
2022-12-01T09:28:45.385Z,101501.90234375
2022-12-01T09:29:45.362Z,101501.078125
2022-12-01T09:30:45.352Z,101500.3671875
2022-12-01T09:31:45.713Z,101503.00390625
2022-12-01T09:32:45.443Z,101502.0546875
2022-12-01T09:33:45.294Z,101497.4375
2022-12-01T09:34:48.400Z,101495.53515625
2022-12-01T09:35:45.463Z,101500.56640625
2022-12-01T09:36:45.700Z,101501.78515625
2022-12-01T09:37:45.434Z,101505.11328125
2022-12-01T09:38:45.277Z,101511.0390625
2022-12-01T09:39:45.380Z,101505.94921875
2022-12-01T09:40:45.281Z,101505.703125
2022-12-01T09:41:45.768Z,101503.5234375
2022-12-01T09:42:45.492Z,101504.76953125
2022-12-01T09:43:45.439Z,101501.41796875
2022-12-01T09:44:45.270Z,101502.1796875
2022-12-01T09:45:45.315Z,101496.73828125
2022-12-01T09:46:45.695Z,101497.3203125
2022-12-01T09:47:45.351Z,101494.83203125
2022-12-01T09:48:45.383Z,101497.33203125
2022-12-01T09:49:45.270Z,101494.17578125
2022-12-01T09:50:48.279Z,101493.06640625
2022-12-01T09:51:45.747Z,101490.0859375
2022-12-01T09:52:45.348Z,101484.44921875
2022-12-01T09:53:45.427Z,101492.1328125
2022-12-01T09:54:45.405Z,101493.46875
2022-12-01T09:55:45.264Z,101488.734375
2022-12-01T09:56:45.641Z,101488.09765625